Minnekata, South Dakota
Current Conditions -  °F | °C
As of 12:53 AM on Monday 26 Jan 2015 (Local Time) from KCUT Reporting Station
Clear Clear  
Wind Chill: 33°   Ceiling: Unl
Heat Index: 40°   Visibility: 10mi
Dew Point: 27°   Wind: 10mph
Humidity: 60%   Direction: 280°W
Pressure: 30.05"   Gusts: NA
Location:  43.346°N, 103.483°W
Report Text: KCUT 260753Z AUTO 28009KT 10SM CLR 04/M03 A3005 RMK AO2 SLP171 T00441028
Loading
Personal Weather Stations






























Interactive Weather Map New forecast layout! Learn more

10-Day Weather Forecast

Advertisements
Track Severe Weather on mobile